createdAt,value
2023-01-01T04:35:21.221Z,13.80
2023-01-01T04:45:37.123Z,13.70
2023-01-01T04:55:52.483Z,13.50
2023-01-01T05:06:10.660Z,13.50
2023-01-01T05:16:31.598Z,13.60
2023-01-01T05:26:46.964Z,13.60
2023-01-01T05:37:02.262Z,13.40
2023-01-01T05:47:18.696Z,13.40
2023-01-01T05:57:33.943Z,13.60
2023-01-01T06:07:49.279Z,13.60
2023-01-01T06:18:04.474Z,13.40
2023-01-01T06:28:19.893Z,13.40
2023-01-01T06:38:36.936Z,13.30
2023-01-01T06:48:58.055Z,13.10
2023-01-01T06:59:13.436Z,13.10
2023-01-01T07:09:28.837Z,13.00
2023-01-01T07:19:44.207Z,13.00
2023-01-01T07:29:59.660Z,13.10
2023-01-01T07:40:15.123Z,13.30
2023-01-01T07:50:32.153Z,13.30
2023-01-01T08:00:48.487Z,13.40
2023-01-01T08:11:04.463Z,13.50
2023-01-01T08:21:19.577Z,13.70
2023-01-01T08:31:35.032Z,14.70
2023-01-01T08:41:50.457Z,14.90
2023-01-01T08:52:05.769Z,14.50
2023-01-01T09:02:21.248Z,14.90
2023-01-01T09:12:36.315Z,15.20
2023-01-01T09:22:51.541Z,15.50
2023-01-01T09:33:06.862Z,15.60
2023-01-01T09:43:47.113Z,15.60
2023-01-01T09:54:19.934Z,15.20
2023-01-01T10:05:01.156Z,15.80
2023-01-01T10:15:22.835Z,15.80
2023-01-01T10:25:40.684Z,16.10
2023-01-01T10:35:58.420Z,15.50
2023-01-01T10:46:19.313Z,15.70
2023-01-01T10:56:41.665Z,15.60
2023-01-01T11:06:56.616Z,15.70
2023-01-01T11:17:11.939Z,16.00
2023-01-01T11:27:27.312Z,16.00
2023-01-01T11:37:45.218Z,15.90
2023-01-01T11:48:03.569Z,15.70
2023-01-01T11:58:37.916Z,15.50
2023-01-01T12:09:05.974Z,15.50
2023-01-01T12:19:28.400Z,15.50
2023-01-01T12:30:15.245Z,15.50
2023-01-01T12:40:43.548Z,15.30
2023-01-01T12:51:16.705Z,15.30
2023-01-01T13:01:34.760Z,15.20
2023-01-01T13:11:55.131Z,15.10
2023-01-01T13:22:25.686Z,15.00
2023-01-01T13:33:30.977Z,14.90
2023-01-01T13:43:46.043Z,14.90
2023-01-01T13:54:53.151Z,14.80
2023-01-01T14:05:24.768Z,14.70
2023-01-01T14:15:59.953Z,14.50
2023-01-01T14:26:18.679Z,14.50
2023-01-01T14:36:33.862Z,14.70
2023-01-01T14:46:51.008Z,14.80
2023-01-01T14:57:14.361Z,14.80
2023-01-01T15:07:31.372Z,14.50
2023-01-01T15:17:47.337Z,14.50
2023-01-01T15:28:02.819Z,14.50
2023-01-01T15:38:23.931Z,14.60
2023-01-01T15:48:51.342Z,14.50
2023-01-01T15:59:28.373Z,14.60
2023-01-01T16:09:43.727Z,14.50
2023-01-01T16:19:59.543Z,14.60
2023-01-01T16:30:15.685Z,14.60
2023-01-01T16:40:35.784Z,14.20
2023-01-01T16:50:53.033Z,14.00
2023-01-01T17:01:08.535Z,13.90
2023-01-01T17:11:24.814Z,14.30
2023-01-01T17:21:40.441Z,15.00
2023-01-01T17:31:55.677Z,15.20
2023-01-01T17:42:10.982Z,15.50
2023-01-01T17:52:28.246Z,15.70
2023-01-01T18:02:46.128Z,15.90
2023-01-01T18:13:02.153Z,15.80
2023-01-01T18:23:17.273Z,15.50
2023-01-01T18:33:34.373Z,15.50
2023-01-01T18:43:49.465Z,15.40
2023-01-01T18:54:13.032Z,14.90
2023-01-01T19:04:28.393Z,14.50
2023-01-01T19:14:43.844Z,14.20
2023-01-01T19:25:01.049Z,13.70
2023-01-01T19:35:16.774Z,13.40
2023-01-01T19:45:33.073Z,13.20
2023-01-01T19:55:48.126Z,12.80
2023-01-01T20:06:03.699Z,12.60
2023-01-01T20:16:18.969Z,12.60
2023-01-01T20:26:34.348Z,12.60
2023-01-01T20:37:08.438Z,12.70
2023-01-01T20:47:26.189Z,12.70
2023-01-01T20:57:41.694Z,12.90
2023-01-01T21:07:57.085Z,13.20
2023-01-01T21:18:13.399Z,13.70
2023-01-01T21:28:33.772Z,14.10
2023-01-01T21:38:50.376Z,14.00
2023-01-01T21:49:21.605Z,13.80
2023-01-01T21:59:39.623Z,13.80
2023-01-01T22:09:56.695Z,14.00
2023-01-01T22:20:24.355Z,14.80
